sensor_id;sensor_type;location;lat;lon;timestamp;P1;durP1;ratioP1;P2;durP2;ratioP2
22614;SDS011;11474;50.790;0.298;2023-02-01T00:00:09;38.58;;;7.38;;
22614;SDS011;11474;50.790;0.298;2023-02-01T00:02:35;36.25;;;6.63;;
22614;SDS011;11474;50.790;0.298;2023-02-01T00:05:05;39.78;;;6.53;;
22614;SDS011;11474;50.790;0.298;2023-02-01T00:07:31;36.72;;;6.63;;
22614;SDS011;11474;50.790;0.298;2023-02-01T00:09:57;37.63;;;7.10;;
22614;SDS011;11474;50.790;0.298;2023-02-01T00:12:23;43.07;;;7.67;;
22614;SDS011;11474;50.790;0.298;2023-02-01T00:14:49;43.22;;;6.40;;
22614;SDS011;11474;50.790;0.298;2023-02-01T00:17:15;39.65;;;7.38;;
22614;SDS011;11474;50.790;0.298;2023-02-01T00:19:41;38.23;;;7.03;;
22614;SDS011;11474;50.790;0.298;2023-02-01T00:22:07;37.40;;;7.13;;
22614;SDS011;11474;50.790;0.298;2023-02-01T00:24:33;39.75;;;6.90;;
22614;SDS011;11474;50.790;0.298;2023-02-01T00:26:59;41.40;;;6.82;;
22614;SDS011;11474;50.790;0.298;2023-02-01T00:29:25;39.42;;;6.43;;
22614;SDS011;11474;50.790;0.298;2023-02-01T00:31:51;41.87;;;7.30;;
22614;SDS011;11474;50.790;0.298;2023-02-01T00:34:17;34.90;;;6.80;;
22614;SDS011;11474;50.790;0.298;2023-02-01T00:36:44;36.22;;;6.00;;
22614;SDS011;11474;50.790;0.298;2023-02-01T00:39:10;40.53;;;7.35;;
22614;SDS011;11474;50.790;0.298;2023-02-01T00:41:37;47.03;;;7.25;;
22614;SDS011;11474;50.790;0.298;2023-02-01T00:44:03;42.05;;;6.78;;
22614;SDS011;11474;50.790;0.298;2023-02-01T00:46:30;40.57;;;7.03;;
22614;SDS011;11474;50.790;0.298;2023-02-01T00:48:56;44.33;;;7.23;;
22614;SDS011;11474;50.790;0.298;2023-02-01T00:51:23;44.85;;;7.25;;
22614;SDS011;11474;50.790;0.298;2023-02-01T00:53:50;48.97;;;7.03;;
22614;SDS011;11474;50.790;0.298;2023-02-01T00:56:16;40.95;;;7.00;;
22614;SDS011;11474;50.790;0.298;2023-02-01T00:58:42;37.70;;;7.07;;
22614;SDS011;11474;50.790;0.298;2023-02-01T01:01:10;34.03;;;7.13;;
22614;SDS011;11474;50.790;0.298;2023-02-01T01:03:38;33.17;;;6.95;;
22614;SDS011;11474;50.790;0.298;2023-02-01T01:06:12;37.93;;;6.33;;
22614;SDS011;11474;50.790;0.298;2023-02-01T01:08:38;39.45;;;6.97;;
22614;SDS011;11474;50.790;0.298;2023-02-01T01:11:09;44.40;;;7.93;;
22614;SDS011;11474;50.790;0.298;2023-02-01T01:13:35;36.30;;;7.30;;
22614;SDS011;11474;50.790;0.298;2023-02-01T01:16:02;38.67;;;7.25;;
22614;SDS011;11474;50.790;0.298;2023-02-01T01:18:29;40.22;;;7.22;;
22614;SDS011;11474;50.790;0.298;2023-02-01T01:20:55;46.47;;;7.32;;
22614;SDS011;11474;50.790;0.298;2023-02-01T01:23:21;33.35;;;6.35;;
22614;SDS011;11474;50.790;0.298;2023-02-01T01:25:47;39.03;;;6.45;;
22614;SDS011;11474;50.790;0.298;2023-02-01T01:28:13;37.22;;;7.47;;
22614;SDS011;11474;50.790;0.298;2023-02-01T01:30:39;38.00;;;6.90;;
22614;SDS011;11474;50.790;0.298;2023-02-01T01:33:06;39.53;;;7.13;;
22614;SDS011;11474;50.790;0.298;2023-02-01T01:35:32;41.63;;;6.57;;
22614;SDS011;11474;50.790;0.298;2023-02-01T01:37:59;43.50;;;7.25;;
22614;SDS011;11474;50.790;0.298;2023-02-01T01:40:26;43.72;;;7.30;;
22614;SDS011;11474;50.790;0.298;2023-02-01T01:42:52;45.53;;;8.20;;
22614;SDS011;11474;50.790;0.298;2023-02-01T01:47:47;37.90;;;7.43;;
22614;SDS011;11474;50.790;0.298;2023-02-01T01:50:15;38.75;;;6.60;;
22614;SDS011;11474;50.790;0.298;2023-02-01T01:52:42;38.38;;;7.90;;
22614;SDS011;11474;50.790;0.298;2023-02-01T01:55:09;37.30;;;7.05;;
22614;SDS011;11474;50.790;0.298;2023-02-01T01:57:39;30.37;;;6.80;;
22614;SDS011;11474;50.790;0.298;2023-02-01T02:00:11;31.92;;;6.05;;
22614;SDS011;11474;50.790;0.298;2023-02-01T02:02:38;43.80;;;7.70;;
22614;SDS011;11474;50.790;0.298;2023-02-01T02:05:06;36.42;;;6.60;;
22614;SDS011;11474;50.790;0.298;2023-02-01T02:07:34;36.42;;;6.90;;
22614;SDS011;11474;50.790;0.298;2023-02-01T02:10:04;37.97;;;7.10;;
22614;SDS011;11474;50.790;0.298;2023-02-01T02:12:31;39.28;;;7.03;;
22614;SDS011;11474;50.790;0.298;2023-02-01T02:14:57;32.47;;;6.25;;
22614;SDS011;11474;50.790;0.298;2023-02-01T02:24:58;42.72;;;7.28;;
22614;SDS011;11474;50.790;0.298;2023-02-01T02:40:49;39.47;;;6.65;;
22614;SDS011;11474;50.790;0.298;2023-02-01T02:43:45;28.88;;;6.10;;
22614;SDS011;11474;50.790;0.298;2023-02-01T02:46:27;32.70;;;5.72;;
22614;SDS011;11474;50.790;0.298;2023-02-01T02:49:20;42.13;;;6.18;;
22614;SDS011;11474;50.790;0.298;2023-02-01T02:51:55;29.58;;;6.00;;
22614;SDS011;11474;50.790;0.298;2023-02-01T02:54:43;27.27;;;5.47;;
22614;SDS011;11474;50.790;0.298;2023-02-01T02:57:12;37.00;;;5.30;;
22614;SDS011;11474;50.790;0.298;2023-02-01T03:00:00;29.33;;;5.40;;
22614;SDS011;11474;50.790;0.298;2023-02-01T03:02:46;31.73;;;5.15;;
22614;SDS011;11474;50.790;0.298;2023-02-01T03:05:32;29.60;;;5.32;;
22614;SDS011;11474;50.790;0.298;2023-02-01T03:18:22;31.90;;;5.13;;
22614;SDS011;11474;50.790;0.298;2023-02-01T03:20:50;29.00;;;4.85;;
22614;SDS011;11474;50.790;0.298;2023-02-01T03:23:17;31.42;;;5.10;;
22614;SDS011;11474;50.790;0.298;2023-02-01T03:25:46;34.28;;;5.25;;
22614;SDS011;11474;50.790;0.298;2023-02-01T03:28:13;27.08;;;4.20;;
22614;SDS011;11474;50.790;0.298;2023-02-01T03:30:41;28.70;;;4.78;;
22614;SDS011;11474;50.790;0.298;2023-02-01T03:33:09;28.23;;;5.07;;
22614;SDS011;11474;50.790;0.298;2023-02-01T03:38:30;30.13;;;4.88;;
22614;SDS011;11474;50.790;0.298;2023-02-01T03:43:45;29.98;;;5.18;;
22614;SDS011;11474;50.790;0.298;2023-02-01T03:46:15;23.70;;;4.75;;
22614;SDS011;11474;50.790;0.298;2023-02-01T03:48:43;26.47;;;4.40;;
22614;SDS011;11474;50.790;0.298;2023-02-01T03:51:10;26.70;;;5.03;;
22614;SDS011;11474;50.790;0.298;2023-02-01T03:53:36;24.38;;;4.40;;
22614;SDS011;11474;50.790;0.298;2023-02-01T03:56:04;21.73;;;4.93;;
22614;SDS011;11474;50.790;0.298;2023-02-01T03:58:31;23.63;;;4.90;;
22614;SDS011;11474;50.790;0.298;2023-02-01T04:00:58;27.83;;;5.28;;
22614;SDS011;11474;50.790;0.298;2023-02-01T04:03:25;29.43;;;5.00;;
22614;SDS011;11474;50.790;0.298;2023-02-01T04:05:51;25.55;;;4.85;;
22614;SDS011;11474;50.790;0.298;2023-02-01T04:08:19;30.58;;;4.97;;
22614;SDS011;11474;50.790;0.298;2023-02-01T04:10:45;24.55;;;4.57;;
22614;SDS011;11474;50.790;0.298;2023-02-01T04:13:11;27.08;;;5.38;;
22614;SDS011;11474;50.790;0.298;2023-02-01T04:15:37;32.00;;;5.18;;
22614;SDS011;11474;50.790;0.298;2023-02-01T04:18:03;28.33;;;4.97;;
22614;SDS011;11474;50.790;0.298;2023-02-01T04:20:29;34.60;;;4.97;;
22614;SDS011;11474;50.790;0.298;2023-02-01T04:22:56;29.92;;;4.85;;
22614;SDS011;11474;50.790;0.298;2023-02-01T04:25:22;28.17;;;5.13;;
22614;SDS011;11474;50.790;0.298;2023-02-01T04:27:48;32.42;;;5.22;;
22614;SDS011;11474;50.790;0.298;2023-02-01T04:30:14;29.13;;;5.03;;
22614;SDS011;11474;50.790;0.298;2023-02-01T04:32:40;34.03;;;5.20;;
22614;SDS011;11474;50.790;0.298;2023-02-01T04:35:07;31.02;;;4.63;;
22614;SDS011;11474;50.790;0.298;2023-02-01T04:37:33;31.65;;;5.38;;
22614;SDS011;11474;50.790;0.298;2023-02-01T04:39:59;27.10;;;5.10;;
22614;SDS011;11474;50.790;0.298;2023-02-01T04:42:25;35.38;;;5.53;;
22614;SDS011;11474;50.790;0.298;2023-02-01T04:44:52;25.45;;;4.35;;
22614;SDS011;11474;50.790;0.298;2023-02-01T04:47:18;27.45;;;5.35;;
22614;SDS011;11474;50.790;0.298;2023-02-01T04:49:44;31.33;;;5.07;;
22614;SDS011;11474;50.790;0.298;2023-02-01T04:52:10;29.98;;;5.80;;
22614;SDS011;11474;50.790;0.298;2023-02-01T04:54:36;28.00;;;5.43;;
22614;SDS011;11474;50.790;0.298;2023-02-01T04:57:02;31.40;;;5.47;;
22614;SDS011;11474;50.790;0.298;2023-02-01T04:59:28;34.95;;;5.65;;
22614;SDS011;11474;50.790;0.298;2023-02-01T05:01:54;30.63;;;5.20;;
22614;SDS011;11474;50.790;0.298;2023-02-01T05:04:20;29.83;;;5.78;;
22614;SDS011;11474;50.790;0.298;2023-02-01T05:06:46;39.55;;;5.93;;
22614;SDS011;11474;50.790;0.298;2023-02-01T05:09:12;30.73;;;5.50;;
22614;SDS011;11474;50.790;0.298;2023-02-01T05:11:38;27.08;;;5.45;;
22614;SDS011;11474;50.790;0.298;2023-02-01T05:14:23;28.88;;;5.00;;
22614;SDS011;11474;50.790;0.298;2023-02-01T05:16:49;33.45;;;5.32;;
22614;SDS011;11474;50.790;0.298;2023-02-01T05:19:15;24.05;;;4.85;;
22614;SDS011;11474;50.790;0.298;2023-02-01T05:21:41;32.85;;;5.78;;
22614;SDS011;11474;50.790;0.298;2023-02-01T05:24:08;30.65;;;5.10;;
22614;SDS011;11474;50.790;0.298;2023-02-01T05:26:34;33.92;;;5.82;;
22614;SDS011;11474;50.790;0.298;2023-02-01T05:29:00;33.67;;;5.15;;
22614;SDS011;11474;50.790;0.298;2023-02-01T05:31:26;31.17;;;5.53;;
22614;SDS011;11474;50.790;0.298;2023-02-01T05:33:52;32.10;;;6.13;;
22614;SDS011;11474;50.790;0.298;2023-02-01T05:36:18;29.02;;;5.75;;
22614;SDS011;11474;50.790;0.298;2023-02-01T05:38:44;32.40;;;5.00;;
22614;SDS011;11474;50.790;0.298;2023-02-01T05:41:10;27.07;;;5.53;;
22614;SDS011;11474;50.790;0.298;2023-02-01T05:43:36;28.50;;;5.10;;
22614;SDS011;11474;50.790;0.298;2023-02-01T05:46:02;24.27;;;5.50;;
22614;SDS011;11474;50.790;0.298;2023-02-01T05:48:28;23.57;;;4.67;;
22614;SDS011;11474;50.790;0.298;2023-02-01T05:50:55;23.42;;;5.13;;
22614;SDS011;11474;50.790;0.298;2023-02-01T05:53:21;35.47;;;5.22;;
22614;SDS011;11474;50.790;0.298;2023-02-01T05:55:47;33.05;;;6.00;;
22614;SDS011;11474;50.790;0.298;2023-02-01T05:58:13;30.30;;;5.05;;
22614;SDS011;11474;50.790;0.298;2023-02-01T06:00:39;34.33;;;6.22;;
22614;SDS011;11474;50.790;0.298;2023-02-01T06:03:06;25.88;;;5.55;;
22614;SDS011;11474;50.790;0.298;2023-02-01T06:05:32;34.85;;;6.20;;
22614;SDS011;11474;50.790;0.298;2023-02-01T06:07:58;34.80;;;5.60;;
22614;SDS011;11474;50.790;0.298;2023-02-01T06:10:24;30.60;;;5.93;;
22614;SDS011;11474;50.790;0.298;2023-02-01T06:12:50;28.50;;;5.55;;
22614;SDS011;11474;50.790;0.298;2023-02-01T06:15:17;24.02;;;4.78;;
22614;SDS011;11474;50.790;0.298;2023-02-01T06:17:44;33.92;;;5.40;;
22614;SDS011;11474;50.790;0.298;2023-02-01T06:20:11;24.95;;;4.78;;
22614;SDS011;11474;50.790;0.298;2023-02-01T06:22:37;34.40;;;5.47;;
22614;SDS011;11474;50.790;0.298;2023-02-01T06:25:04;34.40;;;5.78;;
22614;SDS011;11474;50.790;0.298;2023-02-01T06:27:30;32.40;;;5.30;;
22614;SDS011;11474;50.790;0.298;2023-02-01T06:29:57;28.30;;;5.25;;
22614;SDS011;11474;50.790;0.298;2023-02-01T06:32:23;31.77;;;5.45;;
22614;SDS011;11474;50.790;0.298;2023-02-01T06:34:49;28.77;;;4.97;;
22614;SDS011;11474;50.790;0.298;2023-02-01T06:37:17;29.65;;;5.90;;
22614;SDS011;11474;50.790;0.298;2023-02-01T06:39:43;33.75;;;5.63;;
22614;SDS011;11474;50.790;0.298;2023-02-01T06:42:09;30.73;;;5.43;;
22614;SDS011;11474;50.790;0.298;2023-02-01T06:44:35;26.80;;;4.88;;
22614;SDS011;11474;50.790;0.298;2023-02-01T06:47:03;33.58;;;5.28;;
22614;SDS011;11474;50.790;0.298;2023-02-01T06:49:29;33.20;;;5.35;;
22614;SDS011;11474;50.790;0.298;2023-02-01T06:51:55;30.55;;;5.32;;
22614;SDS011;11474;50.790;0.298;2023-02-01T06:54:21;23.98;;;4.50;;
22614;SDS011;11474;50.790;0.298;2023-02-01T06:56:47;27.27;;;5.40;;
22614;SDS011;11474;50.790;0.298;2023-02-01T06:59:13;28.38;;;5.18;;
22614;SDS011;11474;50.790;0.298;2023-02-01T07:01:39;26.95;;;5.75;;
22614;SDS011;11474;50.790;0.298;2023-02-01T07:04:05;31.02;;;5.03;;
22614;SDS011;11474;50.790;0.298;2023-02-01T07:06:31;29.15;;;4.93;;
22614;SDS011;11474;50.790;0.298;2023-02-01T07:08:57;30.92;;;5.10;;
22614;SDS011;11474;50.790;0.298;2023-02-01T07:11:25;28.37;;;5.37;;
22614;SDS011;11474;50.790;0.298;2023-02-01T07:13:53;29.17;;;5.20;;
22614;SDS011;11474;50.790;0.298;2023-02-01T07:16:19;33.28;;;5.88;;
22614;SDS011;11474;50.790;0.298;2023-02-01T07:18:46;26.98;;;5.20;;
22614;SDS011;11474;50.790;0.298;2023-02-01T07:21:12;28.08;;;5.13;;
22614;SDS011;11474;50.790;0.298;2023-02-01T07:23:38;35.65;;;5.75;;
22614;SDS011;11474;50.790;0.298;2023-02-01T07:26:05;27.20;;;5.53;;
22614;SDS011;11474;50.790;0.298;2023-02-01T07:28:32;27.17;;;5.50;;
22614;SDS011;11474;50.790;0.298;2023-02-01T07:31:02;33.90;;;5.43;;
22614;SDS011;11474;50.790;0.298;2023-02-01T07:33:28;30.25;;;6.15;;
22614;SDS011;11474;50.790;0.298;2023-02-01T07:35:54;30.02;;;4.80;;
22614;SDS011;11474;50.790;0.298;2023-02-01T07:38:20;34.67;;;6.25;;
22614;SDS011;11474;50.790;0.298;2023-02-01T07:40:48;22.85;;;4.80;;
22614;SDS011;11474;50.790;0.298;2023-02-01T07:43:14;29.80;;;5.43;;
22614;SDS011;11474;50.790;0.298;2023-02-01T07:45:40;35.17;;;5.80;;
22614;SDS011;11474;50.790;0.298;2023-02-01T07:48:07;31.63;;;5.00;;
22614;SDS011;11474;50.790;0.298;2023-02-01T07:50:33;26.00;;;4.80;;
22614;SDS011;11474;50.790;0.298;2023-02-01T07:52:59;24.17;;;4.70;;
22614;SDS011;11474;50.790;0.298;2023-02-01T07:55:26;34.55;;;5.45;;
22614;SDS011;11474;50.790;0.298;2023-02-01T07:57:52;31.92;;;5.22;;
22614;SDS011;11474;50.790;0.298;2023-02-01T08:00:18;32.38;;;5.22;;
22614;SDS011;11474;50.790;0.298;2023-02-01T08:03:04;28.63;;;4.93;;
22614;SDS011;11474;50.790;0.298;2023-02-01T08:05:30;25.25;;;5.03;;
22614;SDS011;11474;50.790;0.298;2023-02-01T08:07:56;27.83;;;4.63;;
22614;SDS011;11474;50.790;0.298;2023-02-01T08:10:22;25.48;;;5.10;;
22614;SDS011;11474;50.790;0.298;2023-02-01T08:12:48;27.30;;;4.53;;
22614;SDS011;11474;50.790;0.298;2023-02-01T08:15:17;31.27;;;5.32;;
22614;SDS011;11474;50.790;0.298;2023-02-01T08:17:50;27.33;;;4.95;;
22614;SDS011;11474;50.790;0.298;2023-02-01T08:20:17;23.88;;;4.60;;
22614;SDS011;11474;50.790;0.298;2023-02-01T08:22:43;27.67;;;4.90;;
22614;SDS011;11474;50.790;0.298;2023-02-01T08:25:09;25.97;;;5.07;;
22614;SDS011;11474;50.790;0.298;2023-02-01T08:27:36;22.20;;;4.82;;
22614;SDS011;11474;50.790;0.298;2023-02-01T08:30:03;30.73;;;5.25;;
22614;SDS011;11474;50.790;0.298;2023-02-01T08:32:29;28.90;;;4.93;;
22614;SDS011;11474;50.790;0.298;2023-02-01T08:34:56;32.35;;;5.45;;
22614;SDS011;11474;50.790;0.298;2023-02-01T08:37:22;36.60;;;5.27;;
22614;SDS011;11474;50.790;0.298;2023-02-01T08:39:48;34.47;;;5.35;;
22614;SDS011;11474;50.790;0.298;2023-02-01T08:42:15;33.67;;;5.63;;
22614;SDS011;11474;50.790;0.298;2023-02-01T08:45:00;33.95;;;6.35;;
22614;SDS011;11474;50.790;0.298;2023-02-01T08:47:27;33.05;;;6.10;;
22614;SDS011;11474;50.790;0.298;2023-02-01T08:49:53;29.73;;;5.97;;
22614;SDS011;11474;50.790;0.298;2023-02-01T08:52:20;29.33;;;5.32;;
22614;SDS011;11474;50.790;0.298;2023-02-01T08:54:46;28.33;;;4.70;;
22614;SDS011;11474;50.790;0.298;2023-02-01T08:57:12;25.90;;;5.33;;
22614;SDS011;11474;50.790;0.298;2023-02-01T08:59:38;30.87;;;4.40;;
22614;SDS011;11474;50.790;0.298;2023-02-01T09:02:04;29.33;;;5.38;;
22614;SDS011;11474;50.790;0.298;2023-02-01T09:04:31;34.75;;;5.68;;
22614;SDS011;11474;50.790;0.298;2023-02-01T09:06:57;33.47;;;5.57;;
22614;SDS011;11474;50.790;0.298;2023-02-01T09:09:23;30.88;;;5.55;;
22614;SDS011;11474;50.790;0.298;2023-02-01T09:11:50;26.33;;;4.78;;
22614;SDS011;11474;50.790;0.298;2023-02-01T09:14:16;25.02;;;4.88;;
22614;SDS011;11474;50.790;0.298;2023-02-01T09:16:42;32.30;;;5.50;;
22614;SDS011;11474;50.790;0.298;2023-02-01T09:19:08;29.38;;;4.85;;
22614;SDS011;11474;50.790;0.298;2023-02-01T09:21:34;30.63;;;5.53;;
22614;SDS011;11474;50.790;0.298;2023-02-01T09:24:01;27.73;;;5.23;;
22614;SDS011;11474;50.790;0.298;2023-02-01T09:26:27;28.08;;;4.85;;
22614;SDS011;11474;50.790;0.298;2023-02-01T09:28:53;24.45;;;4.72;;
22614;SDS011;11474;50.790;0.298;2023-02-01T09:31:19;28.03;;;5.07;;
22614;SDS011;11474;50.790;0.298;2023-02-01T09:33:45;25.50;;;5.25;;
22614;SDS011;11474;50.790;0.298;2023-02-01T09:36:11;24.48;;;5.07;;
22614;SDS011;11474;50.790;0.298;2023-02-01T09:38:37;27.83;;;5.15;;
22614;SDS011;11474;50.790;0.298;2023-02-01T09:41:10;24.48;;;4.82;;
22614;SDS011;11474;50.790;0.298;2023-02-01T09:43:48;32.63;;;5.57;;
22614;SDS011;11474;50.790;0.298;2023-02-01T09:46:21;29.80;;;5.03;;
22614;SDS011;11474;50.790;0.298;2023-02-01T09:48:48;25.37;;;5.17;;
22614;SDS011;11474;50.790;0.298;2023-02-01T09:51:19;24.65;;;4.88;;
22614;SDS011;11474;50.790;0.298;2023-02-01T09:53:51;28.27;;;5.17;;
22614;SDS011;11474;50.790;0.298;2023-02-01T09:56:53;32.20;;;5.15;;
22614;SDS011;11474;50.790;0.298;2023-02-01T09:59:54;29.98;;;5.68;;
22614;SDS011;11474;50.790;0.298;2023-02-01T10:02:01;26.27;;;5.28;;
22614;SDS011;11474;50.790;0.298;2023-02-01T10:04:28;31.13;;;5.43;;
22614;SDS011;11474;50.790;0.298;2023-02-01T10:10:21;35.60;;;5.65;;
22614;SDS011;11474;50.790;0.298;2023-02-01T10:15:19;32.38;;;4.82;;
22614;SDS011;11474;50.790;0.298;2023-02-01T10:22:59;21.17;;;4.80;;
22614;SDS011;11474;50.790;0.298;2023-02-01T10:25:36;27.52;;;4.95;;
22614;SDS011;11474;50.790;0.298;2023-02-01T10:28:03;31.60;;;5.93;;
22614;SDS011;11474;50.790;0.298;2023-02-01T10:30:47;28.13;;;5.50;;
22614;SDS011;11474;50.790;0.298;2023-02-01T10:35:40;27.20;;;5.68;;
22614;SDS011;11474;50.790;0.298;2023-02-01T10:38:12;27.00;;;5.43;;
22614;SDS011;11474;50.790;0.298;2023-02-01T10:40:40;30.35;;;4.85;;
22614;SDS011;11474;50.790;0.298;2023-02-01T10:43:07;35.20;;;5.57;;
22614;SDS011;11474;50.790;0.298;2023-02-01T10:45:35;37.83;;;6.20;;
22614;SDS011;11474;50.790;0.298;2023-02-01T10:48:04;28.73;;;4.80;;
22614;SDS011;11474;50.790;0.298;2023-02-01T10:50:38;29.83;;;5.03;;
22614;SDS011;11474;50.790;0.298;2023-02-01T10:57:59;27.88;;;4.38;;
22614;SDS011;11474;50.790;0.298;2023-02-01T11:00:26;28.77;;;4.95;;
22614;SDS011;11474;50.790;0.298;2023-02-01T11:02:52;28.55;;;5.18;;
22614;SDS011;11474;50.790;0.298;2023-02-01T11:05:19;25.67;;;4.45;;
22614;SDS011;11474;50.790;0.298;2023-02-01T11:07:51;27.70;;;4.82;;
22614;SDS011;11474;50.790;0.298;2023-02-01T11:10:39;30.05;;;4.63;;
22614;SDS011;11474;50.790;0.298;2023-02-01T11:13:11;26.13;;;5.10;;
22614;SDS011;11474;50.790;0.298;2023-02-01T11:15:37;22.02;;;4.63;;
22614;SDS011;11474;50.790;0.298;2023-02-01T11:18:19;27.57;;;4.90;;
22614;SDS011;11474;50.790;0.298;2023-02-01T11:20:51;32.07;;;5.00;;
22614;SDS011;11474;50.790;0.298;2023-02-01T11:23:21;29.48;;;5.40;;
22614;SDS011;11474;50.790;0.298;2023-02-01T11:25:56;26.23;;;4.78;;
22614;SDS011;11474;50.790;0.298;2023-02-01T11:28:26;30.65;;;5.07;;
22614;SDS011;11474;50.790;0.298;2023-02-01T11:30:53;38.42;;;5.68;;
22614;SDS011;11474;50.790;0.298;2023-02-01T11:33:22;32.50;;;5.68;;
22614;SDS011;11474;50.790;0.298;2023-02-01T11:35:52;30.30;;;5.63;;
22614;SDS011;11474;50.790;0.298;2023-02-01T11:38:37;26.80;;;5.22;;
22614;SDS011;11474;50.790;0.298;2023-02-01T11:43:49;31.42;;;5.10;;
22614;SDS011;11474;50.790;0.298;2023-02-01T11:46:17;31.35;;;4.80;;
22614;SDS011;11474;50.790;0.298;2023-02-01T11:48:50;30.58;;;5.20;;
22614;SDS011;11474;50.790;0.298;2023-02-01T11:56:28;29.20;;;5.40;;
22614;SDS011;11474;50.790;0.298;2023-02-01T11:59:57;28.40;;;4.55;;
22614;SDS011;11474;50.790;0.298;2023-02-01T12:25:21;38.70;;;5.80;;
22614;SDS011;11474;50.790;0.298;2023-02-01T12:27:59;27.42;;;4.82;;
22614;SDS011;11474;50.790;0.298;2023-02-01T12:33:03;25.50;;;4.88;;
22614;SDS011;11474;50.790;0.298;2023-02-01T12:38:24;30.10;;;5.35;;
22614;SDS011;11474;50.790;0.298;2023-02-01T12:43:28;26.23;;;4.83;;
22614;SDS011;11474;50.790;0.298;2023-02-01T12:46:43;30.38;;;5.22;;
22614;SDS011;11474;50.790;0.298;2023-02-01T12:48:53;32.17;;;5.72;;
22614;SDS011;11474;50.790;0.298;2023-02-01T12:51:21;32.85;;;5.43;;
22614;SDS011;11474;50.790;0.298;2023-02-01T12:56:26;28.88;;;5.57;;
22614;SDS011;11474;50.790;0.298;2023-02-01T12:58:56;36.95;;;6.93;;
22614;SDS011;11474;50.790;0.298;2023-02-01T13:03:59;30.75;;;6.05;;
22614;SDS011;11474;50.790;0.298;2023-02-01T13:06:38;38.75;;;7.05;;
22614;SDS011;11474;50.790;0.298;2023-02-01T13:09:24;24.80;;;5.35;;
22614;SDS011;11474;50.790;0.298;2023-02-01T13:11:52;35.95;;;5.88;;
22614;SDS011;11474;50.790;0.298;2023-02-01T13:16:53;31.70;;;5.55;;
22614;SDS011;11474;50.790;0.298;2023-02-01T13:20:03;27.70;;;5.93;;
22614;SDS011;11474;50.790;0.298;2023-02-01T13:22:26;28.48;;;5.78;;
22614;SDS011;11474;50.790;0.298;2023-02-01T13:24:54;37.67;;;5.97;;
22614;SDS011;11474;50.790;0.298;2023-02-01T13:27:22;38.92;;;6.10;;
22614;SDS011;11474;50.790;0.298;2023-02-01T13:29:54;34.55;;;5.93;;
22614;SDS011;11474;50.790;0.298;2023-02-01T13:37:32;29.13;;;5.38;;
22614;SDS011;11474;50.790;0.298;2023-02-01T13:42:45;38.58;;;6.68;;
22614;SDS011;11474;50.790;0.298;2023-02-01T13:45:14;33.15;;;6.53;;
22614;SDS011;11474;50.790;0.298;2023-02-01T13:47:42;33.03;;;5.65;;
22614;SDS011;11474;50.790;0.298;2023-02-01T13:52:44;33.45;;;5.68;;
22614;SDS011;11474;50.790;0.298;2023-02-01T13:57:41;35.25;;;5.55;;
22614;SDS011;11474;50.790;0.298;2023-02-01T14:00:30;31.00;;;5.78;;
22614;SDS011;11474;50.790;0.298;2023-02-01T14:15:38;24.67;;;4.75;;
22614;SDS011;11474;50.790;0.298;2023-02-01T14:23:47;46.15;;;7.88;;
22614;SDS011;11474;50.790;0.298;2023-02-01T14:26:14;35.58;;;6.40;;
22614;SDS011;11474;50.790;0.298;2023-02-01T14:28:43;30.55;;;5.47;;
22614;SDS011;11474;50.790;0.298;2023-02-01T14:31:13;36.00;;;5.43;;
22614;SDS011;11474;50.790;0.298;2023-02-01T14:33:41;33.90;;;5.70;;
22614;SDS011;11474;50.790;0.298;2023-02-01T14:36:09;32.40;;;6.22;;
22614;SDS011;11474;50.790;0.298;2023-02-01T14:38:37;27.85;;;5.53;;
22614;SDS011;11474;50.790;0.298;2023-02-01T14:49:13;37.42;;;7.07;;
22614;SDS011;11474;50.790;0.298;2023-02-01T14:51:39;35.10;;;5.77;;
22614;SDS011;11474;50.790;0.298;2023-02-01T14:54:07;29.40;;;5.37;;
22614;SDS011;11474;50.790;0.298;2023-02-01T14:56:34;31.02;;;5.03;;
22614;SDS011;11474;50.790;0.298;2023-02-01T14:59:01;28.35;;;5.13;;
22614;SDS011;11474;50.790;0.298;2023-02-01T15:01:34;30.80;;;6.03;;
22614;SDS011;11474;50.790;0.298;2023-02-01T15:04:12;27.02;;;5.18;;
22614;SDS011;11474;50.790;0.298;2023-02-01T15:06:48;30.92;;;5.28;;
22614;SDS011;11474;50.790;0.298;2023-02-01T15:14:24;28.10;;;5.38;;
22614;SDS011;11474;50.790;0.298;2023-02-01T15:16:51;23.88;;;4.60;;
22614;SDS011;11474;50.790;0.298;2023-02-01T15:19:23;28.52;;;5.00;;
22614;SDS011;11474;50.790;0.298;2023-02-01T15:21:51;28.45;;;5.72;;
22614;SDS011;11474;50.790;0.298;2023-02-01T15:24:21;32.05;;;5.45;;
22614;SDS011;11474;50.790;0.298;2023-02-01T15:26:48;25.40;;;4.85;;
22614;SDS011;11474;50.790;0.298;2023-02-01T15:29:14;24.42;;;5.47;;
22614;SDS011;11474;50.790;0.298;2023-02-01T15:31:44;26.95;;;5.10;;
22614;SDS011;11474;50.790;0.298;2023-02-01T15:34:11;25.83;;;4.90;;
22614;SDS011;11474;50.790;0.298;2023-02-01T15:36:37;27.77;;;4.53;;
22614;SDS011;11474;50.790;0.298;2023-02-01T15:41:44;35.75;;;5.03;;
22614;SDS011;11474;50.790;0.298;2023-02-01T15:44:19;31.02;;;5.63;;
22614;SDS011;11474;50.790;0.298;2023-02-01T15:46:46;34.28;;;4.88;;
22614;SDS011;11474;50.790;0.298;2023-02-01T15:49:36;26.90;;;5.03;;
22614;SDS011;11474;50.790;0.298;2023-02-01T15:52:02;29.25;;;5.00;;
22614;SDS011;11474;50.790;0.298;2023-02-01T15:54:37;27.00;;;5.10;;
22614;SDS011;11474;50.790;0.298;2023-02-01T15:57:07;25.85;;;5.03;;
22614;SDS011;11474;50.790;0.298;2023-02-01T15:59:43;30.03;;;6.03;;
22614;SDS011;11474;50.790;0.298;2023-02-01T16:04:50;24.92;;;4.70;;
22614;SDS011;11474;50.790;0.298;2023-02-01T16:07:29;23.02;;;4.80;;
22614;SDS011;11474;50.790;0.298;2023-02-01T16:09:59;24.30;;;4.60;;
22614;SDS011;11474;50.790;0.298;2023-02-01T16:12:45;19.23;;;3.97;;
22614;SDS011;11474;50.790;0.298;2023-02-01T16:15:12;27.40;;;5.00;;
22614;SDS011;11474;50.790;0.298;2023-02-01T16:17:38;25.17;;;4.55;;
22614;SDS011;11474;50.790;0.298;2023-02-01T16:20:04;21.40;;;3.67;;
22614;SDS011;11474;50.790;0.298;2023-02-01T16:22:31;21.75;;;4.00;;
22614;SDS011;11474;50.790;0.298;2023-02-01T16:24:57;22.45;;;4.20;;
22614;SDS011;11474;50.790;0.298;2023-02-01T16:27:23;24.13;;;4.10;;
22614;SDS011;11474;50.790;0.298;2023-02-01T16:29:49;24.30;;;4.18;;
22614;SDS011;11474;50.790;0.298;2023-02-01T16:32:19;21.52;;;4.15;;
22614;SDS011;11474;50.790;0.298;2023-02-01T16:34:46;24.38;;;4.78;;
22614;SDS011;11474;50.790;0.298;2023-02-01T16:37:13;24.13;;;4.15;;
22614;SDS011;11474;50.790;0.298;2023-02-01T16:39:40;26.33;;;5.18;;
22614;SDS011;11474;50.790;0.298;2023-02-01T16:42:12;20.10;;;5.28;;
22614;SDS011;11474;50.790;0.298;2023-02-01T16:44:39;25.50;;;5.00;;
22614;SDS011;11474;50.790;0.298;2023-02-01T16:47:13;22.65;;;5.80;;
22614;SDS011;11474;50.790;0.298;2023-02-01T16:49:41;21.35;;;5.40;;
22614;SDS011;11474;50.790;0.298;2023-02-01T16:52:11;21.50;;;5.35;;
22614;SDS011;11474;50.790;0.298;2023-02-01T16:54:37;24.75;;;4.70;;
22614;SDS011;11474;50.790;0.298;2023-02-01T16:57:04;23.70;;;4.03;;
22614;SDS011;11474;50.790;0.298;2023-02-01T16:59:30;22.75;;;4.00;;
22614;SDS011;11474;50.790;0.298;2023-02-01T17:01:56;24.73;;;4.43;;
22614;SDS011;11474;50.790;0.298;2023-02-01T17:04:22;21.45;;;4.15;;
22614;SDS011;11474;50.790;0.298;2023-02-01T17:06:48;26.38;;;4.57;;
22614;SDS011;11474;50.790;0.298;2023-02-01T17:09:14;20.45;;;4.38;;
22614;SDS011;11474;50.790;0.298;2023-02-01T17:11:40;17.55;;;4.40;;
22614;SDS011;11474;50.790;0.298;2023-02-01T17:14:14;16.75;;;3.88;;
22614;SDS011;11474;50.790;0.298;2023-02-01T17:16:40;21.42;;;4.03;;